No particular awareness of the weather is required.    There are no Weather-warnings


Meteo18 Weather Cam more information Meteo18 Weather Cam


Thunder radar more information blitzortung!


Rain radar more information rain snow radar


Visit our other weather sites:

Template documentation
and downloads

And another site



Weather Underground History page Text

Daily Summary for October 17, 2017 Units:  Both    English   Metric
« Previous Day
Next Day »
Daily Weekly Monthly Yearly Custom
  High: Low: Average:
Temperature: TemperatureC °F /  -17.8 °C 11.1 °F /  -11.6 °C 16.1 °F /  -8.8 °C
Dew Point: DewpointC °F /  -17.8 °C 8.1 °F /  -13.3 °C 11.4 °F /  -11.4 °C
Humidity: Humidity % 35 % 76 %
Wind Speed: WindSpeedKMH mph /  0 km/h - 0.7 mph /  1.1 km/h
Wind Gust: WindSpeedGustKMH mph /  0 km/h - -
Wind:- - SSE
Pressure: PressurehPa in /  0 hPa 1016.5 in /  34418.7 hPa -
Precipitation: 0.0 in /  0 mm    
Historical Graphs
 
 
Tabular Data for October 17, 2017
Time Temperature Dew Point Pressure Wind Wind Speed Wind Gust Humidity Rainfall Rate (Hourly)
TemperatureC °F /  -17.8 °C DewpointC °F /  -17.8 °C PressurehPa in /  0 hPa Calm     Humidity % HourlyPrecipMM in /  0 mm
00:02 14.8 °F /  -9.6 °C 13.5 °F /  -10.3 °C 1024.6 in /  34693 hPa Calm     92 % 0.0 in /  0 mm
00:12 14.7 °F /  -9.6 °C 13.2 °F /  -10.4 °C 1024.3 in /  34682.8 hPa Calm     91 % 0.0 in /  0 mm
00:17 14.6 °F /  -9.7 °C 13.1 °F /  -10.5 °C 1024.3 in /  34682.8 hPa NNW 1.6 mph /  2.6 km/h   91 % 0.0 in /  0 mm
00:22 14.6 °F /  -9.7 °C 13.3 °F /  -10.4 °C 1024.3 in /  34682.8 hPa Calm     92 % 0.0 in /  0 mm
00:32 14.7 °F /  -9.6 °C 13.2 °F /  -10.4 °C 1024.3 in /  34682.8 hPa Calm   1.6 mph /  2.6 km/h 91 % 0.0 in /  0 mm
00:37 14.6 °F /  -9.7 °C 13.1 °F /  -10.5 °C 1024.3 in /  34682.8 hPa Calm   1.6 mph /  2.6 km/h 91 % 0.0 in /  0 mm
00:42 14.4 °F /  -9.8 °C 12.9 °F /  -10.6 °C 1024.3 in /  34682.8 hPa Calm     91 % 0.0 in /  0 mm
00:47 14.3 °F /  -9.8 °C 13.0 °F /  -10.6 °C 1024.3 in /  34682.8 hPa Calm     92 % 0.0 in /  0 mm
00:52 14.2 °F /  -9.9 °C 12.9 °F /  -10.6 °C 1024.3 in /  34682.8 hPa Calm     92 % 0.0 in /  0 mm
00:57 14.2 °F /  -9.9 °C 13.1 °F /  -10.5 °C 1024.3 in /  34682.8 hPa Calm     93 % 0.0 in /  0 mm
01:02 14.4 °F /  -9.8 °C 13.4 °F /  -10.3 °C 1024.3 in /  34682.8 hPa Calm     94 % 0.0 in /  0 mm
01:07 14.6 °F /  -9.7 °C 13.5 °F /  -10.3 °C 1024.3 in /  34682.8 hPa Calm   1.6 mph /  2.6 km/h 93 % 0.0 in /  0 mm
01:12 14.6 °F /  -9.7 °C 13.3 °F /  -10.4 °C 1024.3 in /  34682.8 hPa Calm   1.6 mph /  2.6 km/h 92 % 0.0 in /  0 mm
01:17 14.4 °F /  -9.8 °C 12.9 °F /  -10.6 °C 1024.3 in /  34682.8 hPa Calm   1.6 mph /  2.6 km/h 91 % 0.0 in /  0 mm
01:22 14.3 °F /  -9.8 °C 13.0 °F /  -10.6 °C 1024.3 in /  34682.8 hPa Calm     92 % 0.0 in /  0 mm
01:27 14.2 °F /  -9.9 °C 12.9 °F /  -10.6 °C 1024.3 in /  34682.8 hPa Calm     92 % 0.0 in /  0 mm
01:32 13.8 °F /  -10.1 °C 12.4 °F /  -10.9 °C 1024.3 in /  34682.8 hPa SE 3.2 mph /  5.1 km/h   91 % 0.0 in /  0 mm
01:37 12.8 °F /  -10.7 °C 11.4 °F /  -11.4 °C 1024.3 in /  34682.8 hPa Calm   4.8 mph /  7.7 km/h 91 % 0.0 in /  0 mm
01:42 12.7 °F /  -10.7 °C 11.6 °F /  -11.3 °C 1024.6 in /  34693 hPa Calm   4.8 mph /  7.7 km/h 93 % 0.0 in /  0 mm
01:47 13.1 °F /  -10.5 °C 12.2 °F /  -11 °C 1024.3 in /  34682.8 hPa Calm   4.8 mph /  7.7 km/h 94 % 0.0 in /  0 mm
01:52 13.2 °F /  -10.4 °C 12.3 °F /  -10.9 °C 1024.6 in /  34693 hPa Calm   4.8 mph /  7.7 km/h 94 % 0.0 in /  0 mm
01:57 13.3 °F /  -10.4 °C 12.5 °F /  -10.8 °C 1024.3 in /  34682.8 hPa Calm     95 % 0.0 in /  0 mm
02:02 13.2 °F /  -10.4 °C 12.3 °F /  -10.9 °C 1024.6 in /  34693 hPa NNW 1.6 mph /  2.6 km/h   94 % 0.0 in /  0 mm
02:07 13.3 °F /  -10.4 °C 12.5 °F /  -10.8 °C 1024.3 in /  34682.8 hPa Calm   3.2 mph /  5.1 km/h 95 % 0.0 in /  0 mm
02:12 13.6 °F /  -10.2 °C 12.8 °F /  -10.7 °C 1024.3 in /  34682.8 hPa Calm   3.2 mph /  5.1 km/h 95 % 0.0 in /  0 mm
02:17 13.8 °F /  -10.1 °C 13.0 °F /  -10.6 °C 1024.3 in /  34682.8 hPa Calm   3.2 mph /  5.1 km/h 95 % 0.0 in /  0 mm
02:22 13.9 °F /  -10.1 °C 13.1 °F /  -10.5 °C 1024.3 in /  34682.8 hPa NW 1.6 mph /  2.6 km/h 3.2 mph /  5.1 km/h 95 % 0.0 in /  0 mm
02:27 13.7 °F /  -10.2 °C 12.8 °F /  -10.7 °C 1024.3 in /  34682.8 hPa Calm   3.2 mph /  5.1 km/h 94 % 0.0 in /  0 mm
02:32 13.4 °F /  -10.3 °C 12.5 °F /  -10.8 °C 1024.3 in /  34682.8 hPa Calm   3.2 mph /  5.1 km/h 94 % 0.0 in /  0 mm
02:42 13.3 °F /  -10.4 °C 12.4 °F /  -10.9 °C 1024.3 in /  34682.8 hPa Calm   1.6 mph /  2.6 km/h 94 % 0.0 in /  0 mm
02:47 13.2 °F /  -10.4 °C 12.3 °F /  -10.9 °C 1024.3 in /  34682.8 hPa Calm     94 % 0.0 in /  0 mm
02:52 12.5 °F /  -10.8 °C 11.2 °F /  -11.6 °C 1024.3 in /  34682.8 hPa Calm   3.2 mph /  5.1 km/h 92 % 0.0 in /  0 mm
02:57 12.2 °F /  -11 °C 11.1 °F /  -11.6 °C 1024.3 in /  34682.8 hPa Calm   3.2 mph /  5.1 km/h 93 % 0.0 in /  0 mm
03:02 12.5 °F /  -10.8 °C 11.9 °F /  -11.2 °C 1024.3 in /  34682.8 hPa Calm   3.2 mph /  5.1 km/h 96 % 0.0 in /  0 mm
03:07 12.7 °F /  -10.7 °C 11.9 °F /  -11.2 °C 1024.3 in /  34682.8 hPa Calm   4.8 mph /  7.7 km/h 95 % 0.0 in /  0 mm
03:12 12.7 °F /  -10.7 °C 11.9 °F /  -11.2 °C 1024.3 in /  34682.8 hPa North 1.6 mph /  2.6 km/h 4.8 mph /  7.7 km/h 95 % 0.0 in /  0 mm
03:17 13.2 °F /  -10.4 °C 12.6 °F /  -10.8 °C 1024.3 in /  34682.8 hPa Calm   3.2 mph /  5.1 km/h 96 % 0.0 in /  0 mm
03:22 13.2 °F /  -10.4 °C 12.4 °F /  -10.9 °C 1024.3 in /  34682.8 hPa Calm   3.2 mph /  5.1 km/h 95 % 0.0 in /  0 mm
03:27 13.1 °F /  -10.5 °C 12.3 °F /  -10.9 °C 1024.3 in /  34682.8 hPa Calm   1.6 mph /  2.6 km/h 95 % 0.0 in /  0 mm
03:32 13.1 °F /  -10.5 °C 12.3 °F /  -10.9 °C 1024.3 in /  34682.8 hPa Calm   1.6 mph /  2.6 km/h 95 % 0.0 in /  0 mm
03:37 13.2 °F /  -10.4 °C 12.4 °F /  -10.9 °C 1024.3 in /  34682.8 hPa Calm   1.6 mph /  2.6 km/h 95 % 0.0 in /  0 mm
03:42 13.2 °F /  -10.4 °C 12.4 °F /  -10.9 °C 1024.3 in /  34682.8 hPa Calm   1.6 mph /  2.6 km/h 95 % 0.0 in /  0 mm
03:47 13.0 °F /  -10.6 °C 12.2 °F /  -11 °C 1024.3 in /  34682.8 hPa Calm   1.6 mph /  2.6 km/h 95 % 0.0 in /  0 mm
03:52 12.8 °F /  -10.7 °C 12.0 °F /  -11.1 °C 1024.3 in /  34682.8 hPa Calm   1.6 mph /  2.6 km/h 95 % 0.0 in /  0 mm
03:57 12.5 °F /  -10.8 °C 11.6 °F /  -11.3 °C 1024.3 in /  34682.8 hPa Calm     94 % 0.0 in /  0 mm
04:02 12.3 °F /  -10.9 °C 11.5 °F /  -11.4 °C 1024.3 in /  34682.8 hPa Calm     95 % 0.0 in /  0 mm
04:12 12.1 °F /  -11.1 °C 11.3 °F /  -11.5 °C 1024.3 in /  34682.8 hPa Calm     95 % 0.0 in /  0 mm
04:17 12.1 °F /  -11.1 °C 11.3 °F /  -11.5 °C 1024.3 in /  34682.8 hPa Calm   1.6 mph /  2.6 km/h 95 % 0.0 in /  0 mm
04:22 12.1 °F /  -11.1 °C 11.3 °F /  -11.5 °C 1023.9 in /  34669.3 hPa Calm   1.6 mph /  2.6 km/h 95 % 0.0 in /  0 mm
04:32 12.1 °F /  -11.1 °C 11.5 °F /  -11.4 °C 1024.3 in /  34682.8 hPa Calm     96 % 0.0 in /  0 mm
04:42 12.3 °F /  -10.9 °C 11.7 °F /  -11.3 °C 1023.9 in /  34669.3 hPa Calm     96 % 0.0 in /  0 mm
04:47 12.2 °F /  -11 °C 11.6 °F /  -11.3 °C 1023.9 in /  34669.3 hPa Calm   1.6 mph /  2.6 km/h 96 % 0.0 in /  0 mm
04:52 12.2 °F /  -11 °C 11.6 °F /  -11.3 °C 1023.9 in /  34669.3 hPa Calm   1.6 mph /  2.6 km/h 96 % 0.0 in /  0 mm
04:57 12.1 °F /  -11.1 °C 11.3 °F /  -11.5 °C 1023.9 in /  34669.3 hPa NNE 1.6 mph /  2.6 km/h 1.6 mph /  2.6 km/h 95 % 0.0 in /  0 mm
05:02 12.1 °F /  -11.1 °C 11.5 °F /  -11.4 °C 1023.9 in /  34669.3 hPa Calm   1.6 mph /  2.6 km/h 96 % 0.0 in /  0 mm
05:22 11.8 °F /  -11.2 °C 11.2 °F /  -11.6 °C 1023.9 in /  34669.3 hPa Calm     96 % 0.0 in /  0 mm
05:27 11.7 °F /  -11.3 °C 11.1 °F /  -11.6 °C 1023.9 in /  34669.3 hPa Calm     96 % 0.0 in /  0 mm
05:37 11.6 °F /  -11.3 °C 11.0 °F /  -11.7 °C 1023.9 in /  34669.3 hPa Calm     96 % 0.0 in /  0 mm
05:42 11.8 °F /  -11.2 °C 11.2 °F /  -11.6 °C 1023.9 in /  34669.3 hPa Calm     96 % 0.0 in /  0 mm
05:47 12.0 °F /  -11.1 °C 11.5 °F /  -11.4 °C 1023.6 in /  34659.1 hPa Calm     97 % 0.0 in /  0 mm
05:52 12.1 °F /  -11.1 °C 11.6 °F /  -11.3 °C 1023.6 in /  34659.1 hPa Calm     97 % 0.0 in /  0 mm
05:57 11.8 °F /  -11.2 °C 11.2 °F /  -11.6 °C 1023.6 in /  34659.1 hPa Calm     96 % 0.0 in /  0 mm
06:02 11.8 °F /  -11.2 °C 11.2 °F /  -11.6 °C 1023.6 in /  34659.1 hPa Calm     96 % 0.0 in /  0 mm
06:12 11.8 °F /  -11.2 °C 11.2 °F /  -11.6 °C 1023.2 in /  34645.6 hPa Calm     96 % 0.0 in /  0 mm
06:17 11.4 °F /  -11.4 °C 10.8 °F /  -11.8 °C 1023.6 in /  34659.1 hPa North 1.6 mph /  2.6 km/h   96 % 0.0 in /  0 mm
06:22 11.5 °F /  -11.4 °C 10.9 °F /  -11.7 °C 1023.6 in /  34659.1 hPa Calm     96 % 0.0 in /  0 mm
06:32 11.9 °F /  -11.2 °C 11.4 °F /  -11.4 °C 1023.6 in /  34659.1 hPa Calm   1.6 mph /  2.6 km/h 97 % 0.0 in /  0 mm
06:42 11.7 °F /  -11.3 °C 11.2 °F /  -11.6 °C 1023.6 in /  34659.1 hPa Calm   1.6 mph /  2.6 km/h 97 % 0.0 in /  0 mm
06:52 12.1 °F /  -11.1 °C 11.6 °F /  -11.3 °C 1023.2 in /  34645.6 hPa Calm     97 % 0.0 in /  0 mm
07:02 11.8 °F /  -11.2 °C 11.3 °F /  -11.5 °C 1023.2 in /  34645.6 hPa Calm     97 % 0.0 in /  0 mm
07:12 11.8 °F /  -11.2 °C 11.3 °F /  -11.5 °C 1023.2 in /  34645.6 hPa Calm     97 % 0.0 in /  0 mm
07:22 11.5 °F /  -11.4 °C 10.9 °F /  -11.7 °C 1023.2 in /  34645.6 hPa Calm     96 % 0.0 in /  0 mm
07:32 11.7 °F /  -11.3 °C 11.2 °F /  -11.6 °C 1023.2 in /  34645.6 hPa Calm     97 % 0.0 in /  0 mm
07:42 11.2 °F /  -11.6 °C 10.6 °F /  -11.9 °C 1023.2 in /  34645.6 hPa Calm     96 % 0.0 in /  0 mm
07:52 11.2 °F /  -11.6 °C 10.6 °F /  -11.9 °C 1023.2 in /  34645.6 hPa Calm     96 % 0.0 in /  0 mm
07:57 11.3 °F /  -11.5 °C 10.8 °F /  -11.8 °C 1023.2 in /  34645.6 hPa Calm     97 % 0.0 in /  0 mm
08:02 11.4 °F /  -11.4 °C 10.9 °F /  -11.7 °C 1023.2 in /  34645.6 hPa Calm     97 % 0.0 in /  0 mm
08:12 11.4 °F /  -11.4 °C 10.9 °F /  -11.7 °C 1023.2 in /  34645.6 hPa Calm     97 % 0.0 in /  0 mm
08:22 11.3 °F /  -11.5 °C 10.8 °F /  -11.8 °C 1023.2 in /  34645.6 hPa Calm     97 % 0.0 in /  0 mm
08:32 11.3 °F /  -11.5 °C 10.8 °F /  -11.8 °C 1023.2 in /  34645.6 hPa Calm     97 % 0.0 in /  0 mm
08:37 11.1 °F /  -11.6 °C 10.6 °F /  -11.9 °C 1023.2 in /  34645.6 hPa Calm     97 % 0.0 in /  0 mm
08:42 11.2 °F /  -11.6 °C 10.7 °F /  -11.8 °C 1023.2 in /  34645.6 hPa Calm     97 % 0.0 in /  0 mm
08:52 11.6 °F /  -11.3 °C 11.1 °F /  -11.6 °C 1023.2 in /  34645.6 hPa Calm     97 % 0.0 in /  0 mm
08:57 11.7 °F /  -11.3 °C 11.2 °F /  -11.6 °C 1023.2 in /  34645.6 hPa Calm     97 % 0.0 in /  0 mm
09:02 11.8 °F /  -11.2 °C 11.3 °F /  -11.5 °C 1023.2 in /  34645.6 hPa Calm     97 % 0.0 in /  0 mm
09:12 11.8 °F /  -11.2 °C 11.3 °F /  -11.5 °C 1023.2 in /  34645.6 hPa Calm     97 % 0.0 in /  0 mm
09:17 11.9 °F /  -11.2 °C 11.4 °F /  -11.4 °C 1023.2 in /  34645.6 hPa Calm     97 % 0.0 in /  0 mm
09:22 12.1 °F /  -11.1 °C 11.6 °F /  -11.3 °C 1023.2 in /  34645.6 hPa Calm     97 % 0.0 in /  0 mm
09:32 12.6 °F /  -10.8 °C 12.1 °F /  -11.1 °C 1023.2 in /  34645.6 hPa Calm     97 % 0.0 in /  0 mm
09:42 13.1 °F /  -10.5 °C 12.6 °F /  -10.8 °C 1023.2 in /  34645.6 hPa Calm     97 % 0.0 in /  0 mm
09:52 13.8 °F /  -10.1 °C 13.3 °F /  -10.4 °C 1022.9 in /  34635.4 hPa Calm     97 % 0.0 in /  0 mm
10:02 14.4 °F /  -9.8 °C 13.9 °F /  -10.1 °C 1022.9 in /  34635.4 hPa Calm     97 % 0.0 in /  0 mm
10:12 14.7 °F /  -9.6 °C 13.9 °F /  -10.1 °C 1022.9 in /  34635.4 hPa Calm     95 % 0.0 in /  0 mm
10:17 14.9 °F /  -9.5 °C 13.8 °F /  -10.1 °C 1022.9 in /  34635.4 hPa Calm     93 % 0.0 in /  0 mm
10:22 15.1 °F /  -9.4 °C 13.6 °F /  -10.2 °C 1022.9 in /  34635.4 hPa Calm     91 % 0.0 in /  0 mm
10:32 15.6 °F /  -9.1 °C 13.6 °F /  -10.2 °C 1022.9 in /  34635.4 hPa Calm   3.2 mph /  5.1 km/h 88 % 0.0 in /  0 mm
10:37 16.0 °F /  -8.9 °C 13.7 °F /  -10.2 °C 1022.9 in /  34635.4 hPa Calm   3.2 mph /  5.1 km/h 86 % 0.0 in /  0 mm
10:42 16.1 °F /  -8.8 °C 13.4 °F /  -10.3 °C 1022.9 in /  34635.4 hPa Calm   3.2 mph /  5.1 km/h 84 % 0.0 in /  0 mm
10:52 16.3 °F /  -8.7 °C 13.4 °F /  -10.3 °C 1022.6 in /  34625.2 hPa Calm     83 % 0.0 in /  0 mm
11:02 16.3 °F /  -8.7 °C 12.8 °F /  -10.7 °C 1022.2 in /  34611.7 hPa Calm     80 % 0.0 in /  0 mm
11:12 16.3 °F /  -8.7 °C 13.0 °F /  -10.6 °C 1022.2 in /  34611.7 hPa Calm     81 % 0.0 in /  0 mm
11:17 16.6 °F /  -8.6 °C 13.3 °F /  -10.4 °C 1022.2 in /  34611.7 hPa Calm     81 % 0.0 in /  0 mm
11:22 16.9 °F /  -8.4 °C 13.2 °F /  -10.4 °C 1022.2 in /  34611.7 hPa Calm     79 % 0.0 in /  0 mm
11:32 17.2 °F /  -8.2 °C 13.1 °F /  -10.5 °C 1021.9 in /  34601.5 hPa East 3.2 mph /  5.1 km/h   77 % 0.0 in /  0 mm
11:42 17.9 °F /  -7.8 °C 13.6 °F /  -10.2 °C 1021.9 in /  34601.5 hPa Calm   6.4 mph /  10.3 km/h 76 % 0.0 in /  0 mm
11:52 18.6 °F /  -7.4 °C 13.7 °F /  -10.2 °C 1021.9 in /  34601.5 hPa Calm   6.4 mph /  10.3 km/h 73 % 0.0 in /  0 mm
12:12 19.4 °F /  -7 °C 13.3 °F /  -10.4 °C 1021.6 in /  34591.4 hPa Calm   6.4 mph /  10.3 km/h 68 % 0.0 in /  0 mm
12:22 19.9 °F /  -6.7 °C 13.4 °F /  -10.3 °C 1021.6 in /  34591.4 hPa SE 3.2 mph /  5.1 km/h 6.4 mph /  10.3 km/h 66 % 0.0 in /  0 mm
12:32 19.9 °F /  -6.7 °C 13.8 °F /  -10.1 °C 1021.2 in /  34577.8 hPa Calm   4.8 mph /  7.7 km/h 68 % 0.0 in /  0 mm
12:42 20.4 °F /  -6.4 °C 13.6 °F /  -10.2 °C 1021.2 in /  34577.8 hPa East 1.6 mph /  2.6 km/h 8.0 mph /  12.9 km/h 65 % 0.0 in /  0 mm
12:47 20.6 °F /  -6.3 °C 14.0 °F /  -10 °C 1021.2 in /  34577.8 hPa Calm   6.4 mph /  10.3 km/h 66 % 0.0 in /  0 mm
12:52 21.2 °F /  -6 °C 14.1 °F /  -9.9 °C 1021.2 in /  34577.8 hPa SSE 1.6 mph /  2.6 km/h 6.4 mph /  10.3 km/h 64 % 0.0 in /  0 mm
13:02 21.3 °F /  -5.9 °C 14.0 °F /  -10 °C 1020.9 in /  34567.7 hPa SSE 1.6 mph /  2.6 km/h 8.0 mph /  12.9 km/h 63 % 0.0 in /  0 mm
13:07 21.5 °F /  -5.8 °C 14.2 °F /  -9.9 °C 1020.9 in /  34567.7 hPa Calm   6.4 mph /  10.3 km/h 63 % 0.0 in /  0 mm
13:12 21.6 °F /  -5.8 °C 14.0 °F /  -10 °C 1020.9 in /  34567.7 hPa East 3.2 mph /  5.1 km/h 6.4 mph /  10.3 km/h 62 % 0.0 in /  0 mm
13:17 21.7 °F /  -5.7 °C 14.1 °F /  -9.9 °C 1020.5 in /  34554.1 hPa East 4.8 mph /  7.7 km/h 4.8 mph /  7.7 km/h 62 % 0.0 in /  0 mm
13:22 21.7 °F /  -5.7 °C 13.8 °F /  -10.1 °C 1020.5 in /  34554.1 hPa ENE 4.8 mph /  7.7 km/h 4.8 mph /  7.7 km/h 61 % 0.0 in /  0 mm
13:32 21.8 °F /  -5.7 °C 13.9 °F /  -10.1 °C 1020.2 in /  34544 hPa ESE 1.6 mph /  2.6 km/h 9.7 mph /  15.6 km/h 61 % 0.0 in /  0 mm
13:37 22.1 °F /  -5.5 °C 14.2 °F /  -9.9 °C 1020.2 in /  34544 hPa ENE 6.4 mph /  10.3 km/h 9.7 mph /  15.6 km/h 61 % 0.0 in /  0 mm
13:42 22.2 °F /  -5.4 °C 14.3 °F /  -9.8 °C 1019.9 in /  34533.8 hPa ENE 4.8 mph /  7.7 km/h 9.7 mph /  15.6 km/h 61 % 0.0 in /  0 mm
13:47 22.4 °F /  -5.3 °C 14.3 °F /  -9.8 °C 1019.9 in /  34533.8 hPa ESE 3.2 mph /  5.1 km/h 11.3 mph /  18.2 km/h 60 % 0.0 in /  0 mm
13:52 22.7 °F /  -5.2 °C 14.3 °F /  -9.8 °C 1019.9 in /  34533.8 hPa SE 3.2 mph /  5.1 km/h 11.3 mph /  18.2 km/h 59 % 0.0 in /  0 mm
14:02 23.1 °F /  -4.9 °C 14.6 °F /  -9.7 °C 1019.9 in /  34533.8 hPa ENE 4.8 mph /  7.7 km/h 9.7 mph /  15.6 km/h 59 % 0.0 in /  0 mm
14:12 23.4 °F /  -4.8 °C 14.4 °F /  -9.8 °C 1019.5 in /  34520.3 hPa ENE 3.2 mph /  5.1 km/h 9.7 mph /  15.6 km/h 57 % 0.0 in /  0 mm
14:17 23.5 °F /  -4.7 °C 14.5 °F /  -9.7 °C 1019.5 in /  34520.3 hPa SSE 1.6 mph /  2.6 km/h 11.3 mph /  18.2 km/h 57 % 0.0 in /  0 mm
14:27 23.8 °F /  -4.6 °C 14.5 °F /  -9.7 °C 1019.2 in /  34510.1 hPa SE 1.6 mph /  2.6 km/h 11.3 mph /  18.2 km/h 56 % 0.0 in /  0 mm
14:32 23.8 °F /  -4.6 °C 14.5 °F /  -9.7 °C 1019.2 in /  34510.1 hPa SE 1.6 mph /  2.6 km/h 11.3 mph /  18.2 km/h 56 % 0.0 in /  0 mm
14:42 24.0 °F /  -4.4 °C 14.7 °F /  -9.6 °C 1018.8 in /  34496.6 hPa Calm   12.9 mph /  20.8 km/h 56 % 0.0 in /  0 mm
14:52 24.2 °F /  -4.3 °C 14.6 °F /  -9.7 °C 1018.8 in /  34496.6 hPa East 1.6 mph /  2.6 km/h 12.9 mph /  20.8 km/h 55 % 0.0 in /  0 mm
15:02 24.4 °F /  -4.2 °C 14.2 °F /  -9.9 °C 1018.5 in /  34486.4 hPa NE 3.2 mph /  5.1 km/h 12.9 mph /  20.8 km/h 53 % 0.0 in /  0 mm
15:12 24.3 °F /  -4.3 °C 13.8 °F /  -10.1 °C 1018.5 in /  34486.4 hPa ENE 3.2 mph /  5.1 km/h 11.3 mph /  18.2 km/h 52 % 0.0 in /  0 mm
15:17 24.3 °F /  -4.3 °C 13.2 °F /  -10.4 °C 1018.2 in /  34476.3 hPa NNE 3.2 mph /  5.1 km/h 9.7 mph /  15.6 km/h 50 % 0.0 in /  0 mm
15:22 24.3 °F /  -4.3 °C 13.5 °F /  -10.3 °C 1018.2 in /  34476.3 hPa SE 3.2 mph /  5.1 km/h 9.7 mph /  15.6 km/h 51 % 0.0 in /  0 mm
15:32 24.4 °F /  -4.2 °C 13.3 °F /  -10.4 °C 1018.2 in /  34476.3 hPa SSE 3.2 mph /  5.1 km/h 12.9 mph /  20.8 km/h 50 % 0.0 in /  0 mm
15:42 24.5 °F /  -4.2 °C 12.4 °F /  -10.9 °C 1017.8 in /  34462.7 hPa ESE 1.6 mph /  2.6 km/h 12.9 mph /  20.8 km/h 47 % 0.0 in /  0 mm
15:47 24.6 °F /  -4.1 °C 11.5 °F /  -11.4 °C 1017.8 in /  34462.7 hPa ENE 3.2 mph /  5.1 km/h 12.9 mph /  20.8 km/h 44 % 0.0 in /  0 mm
15:52 24.4 °F /  -4.2 °C 11.4 °F /  -11.4 °C 1017.8 in /  34462.7 hPa East 1.6 mph /  2.6 km/h 12.9 mph /  20.8 km/h 44 % 0.0 in /  0 mm
16:02 24.7 °F /  -4.1 °C 10.6 °F /  -11.9 °C 1017.8 in /  34462.7 hPa SE 1.6 mph /  2.6 km/h 12.9 mph /  20.8 km/h 41 % 0.0 in /  0 mm
16:12 24.8 °F /  -4 °C 8.3 °F /  -13.2 °C 1017.8 in /  34462.7 hPa SE 6.4 mph /  10.3 km/h 14.5 mph /  23.3 km/h 35 % 0.0 in /  0 mm
16:17 24.6 °F /  -4.1 °C 8.1 °F /  -13.3 °C 1017.8 in /  34462.7 hPa East 4.8 mph /  7.7 km/h 14.5 mph /  23.3 km/h 35 % 0.0 in /  0 mm
16:22 24.6 °F /  -4.1 °C 9.3 °F /  -12.6 °C 1017.8 in /  34462.7 hPa SSE 4.8 mph /  7.7 km/h 14.5 mph /  23.3 km/h 38 % 0.0 in /  0 mm
16:32 24.6 °F /  -4.1 °C 8.9 °F /  -12.8 °C 1017.5 in /  34452.6 hPa SE 3.2 mph /  5.1 km/h 14.5 mph /  23.3 km/h 37 % 0.0 in /  0 mm
16:42 24.7 °F /  -4.1 °C 9.0 °F /  -12.8 °C 1017.5 in /  34452.6 hPa SSE 3.2 mph /  5.1 km/h 11.3 mph /  18.2 km/h 37 % 0.0 in /  0 mm
16:47 24.7 °F /  -4.1 °C 9.8 °F /  -12.3 °C 1017.5 in /  34452.6 hPa Calm   12.9 mph /  20.8 km/h 39 % 0.0 in /  0 mm
16:52 24.8 °F /  -4 °C 9.5 °F /  -12.5 °C 1017.5 in /  34452.6 hPa Calm   12.9 mph /  20.8 km/h 38 % 0.0 in /  0 mm
17:02 24.7 °F /  -4.1 °C 9.8 °F /  -12.3 °C 1017.5 in /  34452.6 hPa East 1.6 mph /  2.6 km/h 16.1 mph /  25.9 km/h 39 % 0.0 in /  0 mm
17:12 24.6 °F /  -4.1 °C 8.9 °F /  -12.8 °C 1017.5 in /  34452.6 hPa SW 1.6 mph /  2.6 km/h 16.1 mph /  25.9 km/h 37 % 0.0 in /  0 mm
17:17 24.5 °F /  -4.2 °C 10.0 °F /  -12.2 °C 1017.2 in /  34442.4 hPa Calm   11.3 mph /  18.2 km/h 40 % 0.0 in /  0 mm
17:22 24.5 °F /  -4.2 °C 9.2 °F /  -12.7 °C 1017.2 in /  34442.4 hPa SSE 4.8 mph /  7.7 km/h 11.3 mph /  18.2 km/h 38 % 0.0 in /  0 mm
17:32 24.6 °F /  -4.1 °C 10.1 °F /  -12.2 °C 1017.2 in /  34442.4 hPa SE 4.8 mph /  7.7 km/h 11.3 mph /  18.2 km/h 40 % 0.0 in /  0 mm
17:42 24.3 °F /  -4.3 °C 9.8 °F /  -12.3 °C 1017.2 in /  34442.4 hPa Calm   8.0 mph /  12.9 km/h 40 % 0.0 in /  0 mm
17:52 24.5 °F /  -4.2 °C 10.0 °F /  -12.2 °C 1017.2 in /  34442.4 hPa Calm   8.0 mph /  12.9 km/h 40 % 0.0 in /  0 mm
17:57 24.4 °F /  -4.2 °C 9.9 °F /  -12.3 °C 1016.8 in /  34428.8 hPa Calm   6.4 mph /  10.3 km/h 40 % 0.0 in /  0 mm
18:02 24.3 °F /  -4.3 °C 10.2 °F /  -12.1 °C 1016.8 in /  34428.8 hPa Calm   6.4 mph /  10.3 km/h 41 % 0.0 in /  0 mm
18:12 23.9 °F /  -4.5 °C 10.2 °F /  -12.1 °C 1016.8 in /  34428.8 hPa Calm   3.2 mph /  5.1 km/h 42 % 0.0 in /  0 mm
18:17 23.7 °F /  -4.6 °C 10.4 °F /  -12 °C 1016.8 in /  34428.8 hPa Calm   3.2 mph /  5.1 km/h 43 % 0.0 in /  0 mm
18:22 23.4 °F /  -4.8 °C 10.1 °F /  -12.2 °C 1016.8 in /  34428.8 hPa Calm   3.2 mph /  5.1 km/h 43 % 0.0 in /  0 mm
18:32 22.8 °F /  -5.1 °C 9.6 °F /  -12.4 °C 1016.8 in /  34428.8 hPa Calm   8.0 mph /  12.9 km/h 43 % 0.0 in /  0 mm
18:42 21.8 °F /  -5.7 °C 9.7 °F /  -12.4 °C 1016.8 in /  34428.8 hPa Calm   3.2 mph /  5.1 km/h 46 % 0.0 in /  0 mm
18:47 21.6 °F /  -5.8 °C 9.8 °F /  -12.3 °C 1016.8 in /  34428.8 hPa Calm     47 % 0.0 in /  0 mm
18:52 21.4 °F /  -5.9 °C 9.6 °F /  -12.4 °C 1016.5 in /  34418.7 hPa Calm     47 % 0.0 in /  0 mm
18:57 21.1 °F /  -6.1 °C 9.3 °F /  -12.6 °C 1016.5 in /  34418.7 hPa Calm     47 % 0.0 in /  0 mm
19:02 20.6 °F /  -6.3 °C 9.8 °F /  -12.3 °C 1016.8 in /  34428.8 hPa Calm     50 % 0.0 in /  0 mm
19:12 19.5 °F /  -6.9 °C 9.7 °F /  -12.4 °C 1016.8 in /  34428.8 hPa Calm   1.6 mph /  2.6 km/h 53 % 0.0 in /  0 mm
19:17 19.1 °F /  -7.2 °C 9.6 °F /  -12.4 °C 1016.8 in /  34428.8 hPa Calm   1.6 mph /  2.6 km/h 54 % 0.0 in /  0 mm
19:22 18.9 °F /  -7.3 °C 9.7 °F /  -12.4 °C 1016.8 in /  34428.8 hPa Calm   1.6 mph /  2.6 km/h 55 % 0.0 in /  0 mm
19:32 18.5 °F /  -7.5 °C 9.6 °F /  -12.4 °C 1016.5 in /  34418.7 hPa Calm     56 % 0.0 in /  0 mm
19:37 18.2 °F /  -7.7 °C 9.8 °F /  -12.3 °C 1016.5 in /  34418.7 hPa Calm     58 % 0.0 in /  0 mm
19:47 17.8 °F /  -7.9 °C 10.2 °F /  -12.1 °C 1016.5 in /  34418.7 hPa North 3.2 mph /  5.1 km/h 3.2 mph /  5.1 km/h 61 % 0.0 in /  0 mm
19:52 17.6 °F /  -8 °C 10.2 °F /  -12.1 °C 1016.5 in /  34418.7 hPa Calm   3.2 mph /  5.1 km/h 62 % 0.0 in /  0 mm
19:57 17.2 °F /  -8.2 °C 10.3 °F /  -12.1 °C 1016.5 in /  34418.7 hPa NNW 1.6 mph /  2.6 km/h 3.2 mph /  5.1 km/h 64 % 0.0 in /  0 mm
20:02 17.0 °F /  -8.3 °C 9.7 °F /  -12.4 °C 1016.8 in /  34428.8 hPa NNW 1.6 mph /  2.6 km/h 3.2 mph /  5.1 km/h 62 % 0.0 in /  0 mm
20:07 16.8 °F /  -8.4 °C 9.5 °F /  -12.5 °C 1016.5 in /  34418.7 hPa Calm   1.6 mph /  2.6 km/h 62 % 0.0 in /  0 mm
20:12 16.8 °F /  -8.4 °C 9.7 °F /  -12.4 °C 1016.5 in /  34418.7 hPa NNW 1.6 mph /  2.6 km/h 1.6 mph /  2.6 km/h 63 % 0.0 in /  0 mm
20:17 16.6 °F /  -8.6 °C 10.0 °F /  -12.2 °C 1016.5 in /  34418.7 hPa NNW 1.6 mph /  2.6 km/h 1.6 mph /  2.6 km/h 65 % 0.0 in /  0 mm
20:22 16.3 °F /  -8.7 °C 9.9 °F /  -12.3 °C 1016.5 in /  34418.7 hPa Calm   3.2 mph /  5.1 km/h 66 % 0.0 in /  0 mm
20:27 16.0 °F /  -8.9 °C 9.9 °F /  -12.3 °C 1016.5 in /  34418.7 hPa North 1.6 mph /  2.6 km/h 3.2 mph /  5.1 km/h 67 % 0.0 in /  0 mm
20:32 15.9 °F /  -8.9 °C 10.0 °F /  -12.2 °C 1016.5 in /  34418.7 hPa Calm   3.2 mph /  5.1 km/h 68 % 0.0 in /  0 mm
20:37 15.9 °F /  -8.9 °C 10.0 °F /  -12.2 °C 1016.5 in /  34418.7 hPa Calm   3.2 mph /  5.1 km/h 68 % 0.0 in /  0 mm
20:42 15.8 °F /  -9 °C 10.1 °F /  -12.2 °C 1016.5 in /  34418.7 hPa Calm   1.6 mph /  2.6 km/h 69 % 0.0 in /  0 mm
20:47 15.6 °F /  -9.1 °C 9.9 °F /  -12.3 °C 1016.5 in /  34418.7 hPa Calm   1.6 mph /  2.6 km/h 69 % 0.0 in /  0 mm
20:52 15.3 °F /  -9.3 °C 9.6 °F /  -12.4 °C 1016.5 in /  34418.7 hPa Calm   1.6 mph /  2.6 km/h 69 % 0.0 in /  0 mm
21:02 15.0 °F /  -9.4 °C 10.0 °F /  -12.2 °C 1016.5 in /  34418.7 hPa Calm     72 % 0.0 in /  0 mm
21:07 14.7 °F /  -9.6 °C 9.9 °F /  -12.3 °C 1016.5 in /  34418.7 hPa Calm     73 % 0.0 in /  0 mm
21:12 14.2 °F /  -9.9 °C 10.0 °F /  -12.2 °C 1016.5 in /  34418.7 hPa Calm     76 % 0.0 in /  0 mm
21:17 13.9 °F /  -10.1 °C 9.9 °F /  -12.3 °C 1016.5 in /  34418.7 hPa Calm     77 % 0.0 in /  0 mm
21:22 13.7 °F /  -10.2 °C 9.7 °F /  -12.4 °C 1016.5 in /  34418.7 hPa Calm     77 % 0.0 in /  0 mm
21:27 13.8 °F /  -10.1 °C 9.6 °F /  -12.4 °C 1016.5 in /  34418.7 hPa Calm     76 % 0.0 in /  0 mm
21:32 13.6 °F /  -10.2 °C 9.6 °F /  -12.4 °C 1016.5 in /  34418.7 hPa Calm     77 % 0.0 in /  0 mm
21:42 13.7 °F /  -10.2 °C 9.5 °F /  -12.5 °C 1016.5 in /  34418.7 hPa WNW 3.2 mph /  5.1 km/h   76 % 0.0 in /  0 mm
21:47 13.7 °F /  -10.2 °C 9.1 °F /  -12.7 °C 1016.5 in /  34418.7 hPa West 1.6 mph /  2.6 km/h 4.8 mph /  7.7 km/h 74 % 0.0 in /  0 mm
21:52 13.9 °F /  -10.1 °C 9.3 °F /  -12.6 °C 1016.5 in /  34418.7 hPa Calm   4.8 mph /  7.7 km/h 74 % 0.0 in /  0 mm
21:57 14.0 °F /  -10 °C 9.2 °F /  -12.7 °C 1016.5 in /  34418.7 hPa Calm   4.8 mph /  7.7 km/h 73 % 0.0 in /  0 mm
22:02 13.9 °F /  -10.1 °C 9.1 °F /  -12.7 °C 1016.5 in /  34418.7 hPa Calm   4.8 mph /  7.7 km/h 73 % 0.0 in /  0 mm
22:07 13.9 °F /  -10.1 °C 9.1 °F /  -12.7 °C 1016.8 in /  34428.8 hPa Calm   1.6 mph /  2.6 km/h 73 % 0.0 in /  0 mm
22:17 13.2 °F /  -10.4 °C 9.1 °F /  -12.7 °C 1016.8 in /  34428.8 hPa Calm   1.6 mph /  2.6 km/h 76 % 0.0 in /  0 mm
22:27 12.9 °F /  -10.6 °C 9.2 °F /  -12.7 °C 1016.8 in /  34428.8 hPa Calm     78 % 0.0 in /  0 mm
22:32 13.0 °F /  -10.6 °C 9.1 °F /  -12.7 °C 1016.8 in /  34428.8 hPa Calm     77 % 0.0 in /  0 mm
22:37 13.1 °F /  -10.5 °C 9.2 °F /  -12.7 °C 1016.8 in /  34428.8 hPa Calm     77 % 0.0 in /  0 mm
22:47 13.1 °F /  -10.5 °C 9.0 °F /  -12.8 °C 1016.8 in /  34428.8 hPa Calm     76 % 0.0 in /  0 mm
22:52 12.9 °F /  -10.6 °C 9.0 °F /  -12.8 °C 1016.8 in /  34428.8 hPa Calm     77 % 0.0 in /  0 mm
22:57 12.8 °F /  -10.7 °C 8.9 °F /  -12.8 °C 1016.8 in /  34428.8 hPa WNW 3.2 mph /  5.1 km/h 3.2 mph /  5.1 km/h 77 % 0.0 in /  0 mm
23:02 12.8 °F /  -10.7 °C 8.7 °F /  -12.9 °C 1016.8 in /  34428.8 hPa Calm   3.2 mph /  5.1 km/h 76 % 0.0 in /  0 mm
23:12 11.6 °F /  -11.3 °C 8.3 °F /  -13.2 °C 1017.2 in /  34442.4 hPa Calm   4.8 mph /  7.7 km/h 80 % 0.0 in /  0 mm
23:17 11.7 °F /  -11.3 °C 8.7 °F /  -12.9 °C 1017.2 in /  34442.4 hPa Calm   8.0 mph /  12.9 km/h 82 % 0.0 in /  0 mm
23:22 11.8 °F /  -11.2 °C 8.6 °F /  -13 °C 1017.2 in /  34442.4 hPa Calm   8.0 mph /  12.9 km/h 81 % 0.0 in /  0 mm
23:32 12.1 °F /  -11.1 °C 8.8 °F /  -12.9 °C 1017.2 in /  34442.4 hPa Calm     80 % 0.0 in /  0 mm
23:37 12.1 °F /  -11.1 °C 8.6 °F /  -13 °C 1017.2 in /  34442.4 hPa Calm   1.6 mph /  2.6 km/h 79 % 0.0 in /  0 mm
23:42 12.3 °F /  -10.9 °C 8.6 °F /  -13 °C 1017.2 in /  34442.4 hPa Calm   1.6 mph /  2.6 km/h 78 % 0.0 in /  0 mm
23:47 12.7 °F /  -10.7 °C 8.8 °F /  -12.9 °C 1017.2 in /  34442.4 hPa Calm   1.6 mph /  2.6 km/h 77 % 0.0 in /  0 mm
23:52 12.7 °F /  -10.7 °C 8.6 °F /  -13 °C 1017.2 in /  34442.4 hPa WNW 3.2 mph /  5.1 km/h 3.2 mph /  5.1 km/h 76 % 0.0 in /  0 mm
23:57 12.3 °F /  -10.9 °C 8.4 °F /  -13.1 °C 1017.2 in /  34442.4 hPa Calm   4.8 mph /  7.7 km/h 77 % 0.0 in /  0 mm
Meteo18
Compliments of Weather Underground - 4 mb

Script developed by  Jim McMurry - jmcmurry@mwt.net Adapted for the template by  Wim van der Kuil - Leuven-Template.eu

You find our weather info also at:

European Weather Network

Weather Underground

Equipment we use:

Weather-station
Davis Vue

Weather-program
Meteobridge

Weather-server
Raspberry PI 2 B+

Provider
1 and 1

Davis Vue

Meteobridge

Raspberry PI 2 B+

1 and 1